sensor_id;sensor_type;location;lat;lon;timestamp;P1;durP1;ratioP1;P2;durP2;ratioP2
1715;SDS011;855;48.824;9.220;2023-11-21T00:01:23;22.33;;;2.80;;
1715;SDS011;855;48.824;9.220;2023-11-21T00:03:50;3.47;;;1.80;;
1715;SDS011;855;48.824;9.220;2023-11-21T00:06:19;8.13;;;2.30;;
1715;SDS011;855;48.824;9.220;2023-11-21T00:08:46;2.10;;;1.63;;
1715;SDS011;855;48.824;9.220;2023-11-21T00:11:13;5.37;;;2.40;;
1715;SDS011;855;48.824;9.220;2023-11-21T00:13:40;7.10;;;1.57;;
1715;SDS011;855;48.824;9.220;2023-11-21T00:16:08;15.53;;;2.23;;
1715;SDS011;855;48.824;9.220;2023-11-21T00:18:35;12.37;;;1.67;;
1715;SDS011;855;48.824;9.220;2023-11-21T00:21:02;3.00;;;2.07;;
1715;SDS011;855;48.824;9.220;2023-11-21T00:23:29;6.40;;;2.40;;
1715;SDS011;855;48.824;9.220;2023-11-21T00:25:56;15.17;;;2.60;;
1715;SDS011;855;48.824;9.220;2023-11-21T00:28:23;4.87;;;1.67;;
1715;SDS011;855;48.824;9.220;2023-11-21T00:30:50;3.70;;;1.20;;
1715;SDS011;855;48.824;9.220;2023-11-21T00:33:18;9.70;;;2.00;;
1715;SDS011;855;48.824;9.220;2023-11-21T00:35:45;5.30;;;2.10;;
1715;SDS011;855;48.824;9.220;2023-11-21T00:38:12;4.03;;;1.30;;
1715;SDS011;855;48.824;9.220;2023-11-21T00:40:39;4.67;;;1.60;;
1715;SDS011;855;48.824;9.220;2023-11-21T00:43:07;1.90;;;1.60;;
1715;SDS011;855;48.824;9.220;2023-11-21T00:45:34;4.20;;;1.30;;
1715;SDS011;855;48.824;9.220;2023-11-21T00:48:01;5.40;;;1.87;;
1715;SDS011;855;48.824;9.220;2023-11-21T00:50:31;2.30;;;1.30;;
1715;SDS011;855;48.824;9.220;2023-11-21T00:52:58;2.63;;;1.47;;
1715;SDS011;855;48.824;9.220;2023-11-21T00:55:24;4.97;;;2.03;;
1715;SDS011;855;48.824;9.220;2023-11-21T00:57:53;2.00;;;1.60;;
1715;SDS011;855;48.824;9.220;2023-11-21T01:00:20;8.73;;;2.73;;
1715;SDS011;855;48.824;9.220;2023-11-21T01:02:48;13.83;;;2.57;;
1715;SDS011;855;48.824;9.220;2023-11-21T01:05:15;4.57;;;1.63;;
1715;SDS011;855;48.824;9.220;2023-11-21T01:07:43;3.53;;;1.37;;
1715;SDS011;855;48.824;9.220;2023-11-21T01:10:10;2.43;;;1.50;;
1715;SDS011;855;48.824;9.220;2023-11-21T01:12:37;1.83;;;1.40;;
1715;SDS011;855;48.824;9.220;2023-11-21T01:15:05;4.53;;;1.50;;
1715;SDS011;855;48.824;9.220;2023-11-21T01:17:33;16.80;;;2.60;;
1715;SDS011;855;48.824;9.220;2023-11-21T01:20:00;4.93;;;1.70;;
1715;SDS011;855;48.824;9.220;2023-11-21T01:22:27;2.70;;;1.40;;
1715;SDS011;855;48.824;9.220;2023-11-21T01:24:55;6.70;;;1.70;;
1715;SDS011;855;48.824;9.220;2023-11-21T01:27:23;2.30;;;1.33;;
1715;SDS011;855;48.824;9.220;2023-11-21T01:29:49;9.00;;;1.53;;
1715;SDS011;855;48.824;9.220;2023-11-21T01:32:18;10.33;;;1.90;;
1715;SDS011;855;48.824;9.220;2023-11-21T01:34:45;3.87;;;1.63;;
1715;SDS011;855;48.824;9.220;2023-11-21T01:37:12;4.43;;;1.70;;
1715;SDS011;855;48.824;9.220;2023-11-21T01:39:39;4.30;;;1.33;;
1715;SDS011;855;48.824;9.220;2023-11-21T01:42:07;5.03;;;1.20;;
1715;SDS011;855;48.824;9.220;2023-11-21T01:44:34;6.80;;;1.73;;
1715;SDS011;855;48.824;9.220;2023-11-21T01:47:02;22.87;;;1.67;;
1715;SDS011;855;48.824;9.220;2023-11-21T01:49:30;18.13;;;1.57;;
1715;SDS011;855;48.824;9.220;2023-11-21T01:51:58;15.57;;;1.30;;
1715;SDS011;855;48.824;9.220;2023-11-21T01:54:25;5.00;;;1.57;;
1715;SDS011;855;48.824;9.220;2023-11-21T01:56:56;3.53;;;1.27;;
1715;SDS011;855;48.824;9.220;2023-11-21T01:59:29;6.73;;;2.53;;
1715;SDS011;855;48.824;9.220;2023-11-21T02:02:01;2.50;;;0.80;;
1715;SDS011;855;48.824;9.220;2023-11-21T02:04:30;4.57;;;1.40;;
1715;SDS011;855;48.824;9.220;2023-11-21T02:06:57;6.10;;;1.50;;
1715;SDS011;855;48.824;9.220;2023-11-21T02:09:24;4.43;;;1.17;;
1715;SDS011;855;48.824;9.220;2023-11-21T02:11:52;5.20;;;1.37;;
1715;SDS011;855;48.824;9.220;2023-11-21T02:14:19;7.83;;;1.57;;
1715;SDS011;855;48.824;9.220;2023-11-21T02:16:51;8.80;;;1.50;;
1715;SDS011;855;48.824;9.220;2023-11-21T02:19:19;2.13;;;1.30;;
1715;SDS011;855;48.824;9.220;2023-11-21T02:21:48;2.20;;;0.90;;
1715;SDS011;855;48.824;9.220;2023-11-21T02:24:18;1.53;;;1.20;;
1715;SDS011;855;48.824;9.220;2023-11-21T02:26:45;3.57;;;1.30;;
1715;SDS011;855;48.824;9.220;2023-11-21T02:29:12;2.63;;;1.63;;
1715;SDS011;855;48.824;9.220;2023-11-21T02:31:42;2.67;;;1.10;;
1715;SDS011;855;48.824;9.220;2023-11-21T02:34:13;2.20;;;1.10;;
1715;SDS011;855;48.824;9.220;2023-11-21T02:36:40;1.13;;;0.93;;
1715;SDS011;855;48.824;9.220;2023-11-21T02:39:07;4.27;;;0.90;;
1715;SDS011;855;48.824;9.220;2023-11-21T02:41:35;1.83;;;0.97;;
1715;SDS011;855;48.824;9.220;2023-11-21T02:44:03;4.50;;;1.17;;
1715;SDS011;855;48.824;9.220;2023-11-21T02:46:31;6.50;;;1.70;;
1715;SDS011;855;48.824;9.220;2023-11-21T02:48:58;9.20;;;1.17;;
1715;SDS011;855;48.824;9.220;2023-11-21T02:51:25;1.80;;;0.83;;
1715;SDS011;855;48.824;9.220;2023-11-21T02:53:52;3.70;;;1.30;;
1715;SDS011;855;48.824;9.220;2023-11-21T02:56:19;10.17;;;0.93;;
1715;SDS011;855;48.824;9.220;2023-11-21T02:58:47;1.53;;;1.00;;
1715;SDS011;855;48.824;9.220;2023-11-21T03:01:14;1.53;;;0.90;;
1715;SDS011;855;48.824;9.220;2023-11-21T03:03:42;0.73;;;0.70;;
1715;SDS011;855;48.824;9.220;2023-11-21T03:06:08;5.93;;;1.03;;
1715;SDS011;855;48.824;9.220;2023-11-21T03:08:35;1.70;;;1.03;;
1715;SDS011;855;48.824;9.220;2023-11-21T03:11:02;2.23;;;1.13;;
1715;SDS011;855;48.824;9.220;2023-11-21T03:13:29;2.77;;;0.90;;
1715;SDS011;855;48.824;9.220;2023-11-21T03:15:57;5.40;;;1.30;;
1715;SDS011;855;48.824;9.220;2023-11-21T03:18:24;1.37;;;1.03;;
1715;SDS011;855;48.824;9.220;2023-11-21T03:20:52;0.83;;;0.83;;
1715;SDS011;855;48.824;9.220;2023-11-21T03:23:19;1.67;;;1.20;;
1715;SDS011;855;48.824;9.220;2023-11-21T03:25:46;1.13;;;0.83;;
1715;SDS011;855;48.824;9.220;2023-11-21T03:28:14;3.60;;;0.97;;
1715;SDS011;855;48.824;9.220;2023-11-21T03:30:40;1.17;;;0.90;;
1715;SDS011;855;48.824;9.220;2023-11-21T03:33:08;1.03;;;0.70;;
1715;SDS011;855;48.824;9.220;2023-11-21T03:35:35;1.07;;;0.97;;
1715;SDS011;855;48.824;9.220;2023-11-21T03:38:02;0.90;;;0.63;;
1715;SDS011;855;48.824;9.220;2023-11-21T03:40:29;2.10;;;0.97;;
1715;SDS011;855;48.824;9.220;2023-11-21T03:42:56;3.07;;;0.73;;
1715;SDS011;855;48.824;9.220;2023-11-21T03:45:23;2.20;;;0.80;;
1715;SDS011;855;48.824;9.220;2023-11-21T03:47:50;0.93;;;0.83;;
1715;SDS011;855;48.824;9.220;2023-11-21T03:50:18;2.90;;;0.80;;
1715;SDS011;855;48.824;9.220;2023-11-21T03:52:45;1.27;;;0.60;;
1715;SDS011;855;48.824;9.220;2023-11-21T03:55:12;1.27;;;0.70;;
1715;SDS011;855;48.824;9.220;2023-11-21T03:57:40;0.90;;;0.73;;
1715;SDS011;855;48.824;9.220;2023-11-21T04:00:07;1.33;;;0.70;;
1715;SDS011;855;48.824;9.220;2023-11-21T04:02:35;0.93;;;0.80;;
1715;SDS011;855;48.824;9.220;2023-11-21T04:05:02;1.60;;;0.87;;
1715;SDS011;855;48.824;9.220;2023-11-21T04:07:31;4.37;;;0.80;;
1715;SDS011;855;48.824;9.220;2023-11-21T04:09:58;1.53;;;0.90;;
1715;SDS011;855;48.824;9.220;2023-11-21T04:12:25;7.00;;;1.07;;
1715;SDS011;855;48.824;9.220;2023-11-21T04:14:52;2.87;;;0.87;;
1715;SDS011;855;48.824;9.220;2023-11-21T04:17:19;2.97;;;1.10;;
1715;SDS011;855;48.824;9.220;2023-11-21T04:19:46;2.93;;;0.80;;
1715;SDS011;855;48.824;9.220;2023-11-21T04:22:12;2.30;;;0.53;;
1715;SDS011;855;48.824;9.220;2023-11-21T04:24:40;0.70;;;0.60;;
1715;SDS011;855;48.824;9.220;2023-11-21T04:27:07;7.03;;;1.60;;
1715;SDS011;855;48.824;9.220;2023-11-21T04:29:34;1.40;;;0.80;;
1715;SDS011;855;48.824;9.220;2023-11-21T04:32:01;1.37;;;0.80;;
1715;SDS011;855;48.824;9.220;2023-11-21T04:34:28;3.07;;;1.07;;
1715;SDS011;855;48.824;9.220;2023-11-21T04:36:55;8.97;;;1.13;;
1715;SDS011;855;48.824;9.220;2023-11-21T04:39:22;1.83;;;0.97;;
1715;SDS011;855;48.824;9.220;2023-11-21T04:41:51;4.83;;;0.87;;
1715;SDS011;855;48.824;9.220;2023-11-21T04:44:18;2.30;;;1.20;;
1715;SDS011;855;48.824;9.220;2023-11-21T04:46:45;1.10;;;0.90;;
1715;SDS011;855;48.824;9.220;2023-11-21T04:49:11;0.83;;;0.80;;
1715;SDS011;855;48.824;9.220;2023-11-21T04:51:38;1.20;;;0.80;;
1715;SDS011;855;48.824;9.220;2023-11-21T04:54:05;0.97;;;0.90;;
1715;SDS011;855;48.824;9.220;2023-11-21T04:56:32;0.50;;;0.50;;
1715;SDS011;855;48.824;9.220;2023-11-21T04:59:00;0.73;;;0.70;;
1715;SDS011;855;48.824;9.220;2023-11-21T05:01:27;1.60;;;0.63;;
1715;SDS011;855;48.824;9.220;2023-11-21T05:03:54;0.90;;;0.70;;
1715;SDS011;855;48.824;9.220;2023-11-21T05:06:22;0.73;;;0.73;;
1715;SDS011;855;48.824;9.220;2023-11-21T05:08:49;0.90;;;0.80;;
1715;SDS011;855;48.824;9.220;2023-11-21T05:11:23;1.00;;;0.90;;
1715;SDS011;855;48.824;9.220;2023-11-21T05:13:50;0.60;;;0.60;;
1715;SDS011;855;48.824;9.220;2023-11-21T05:16:19;3.53;;;1.43;;
1715;SDS011;855;48.824;9.220;2023-11-21T05:18:46;1.50;;;1.00;;
1715;SDS011;855;48.824;9.220;2023-11-21T05:21:15;1.00;;;0.90;;
1715;SDS011;855;48.824;9.220;2023-11-21T05:23:42;1.23;;;0.90;;
1715;SDS011;855;48.824;9.220;2023-11-21T05:26:09;1.23;;;0.90;;
1715;SDS011;855;48.824;9.220;2023-11-21T05:28:35;0.80;;;0.80;;
1715;SDS011;855;48.824;9.220;2023-11-21T05:31:03;1.90;;;1.30;;
1715;SDS011;855;48.824;9.220;2023-11-21T05:33:31;3.67;;;1.40;;
1715;SDS011;855;48.824;9.220;2023-11-21T05:35:59;1.67;;;1.33;;
1715;SDS011;855;48.824;9.220;2023-11-21T05:38:26;1.43;;;1.03;;
1715;SDS011;855;48.824;9.220;2023-11-21T05:40:52;1.37;;;1.00;;
1715;SDS011;855;48.824;9.220;2023-11-21T05:43:19;2.57;;;1.27;;
1715;SDS011;855;48.824;9.220;2023-11-21T05:45:46;0.80;;;0.80;;
1715;SDS011;855;48.824;9.220;2023-11-21T05:48:13;3.27;;;1.17;;
1715;SDS011;855;48.824;9.220;2023-11-21T05:50:42;0.90;;;0.80;;
1715;SDS011;855;48.824;9.220;2023-11-21T05:53:09;2.03;;;0.80;;
1715;SDS011;855;48.824;9.220;2023-11-21T05:55:36;1.60;;;0.90;;
1715;SDS011;855;48.824;9.220;2023-11-21T05:58:04;1.30;;;0.90;;
1715;SDS011;855;48.824;9.220;2023-11-21T06:00:31;2.40;;;1.13;;
1715;SDS011;855;48.824;9.220;2023-11-21T06:02:58;3.77;;;0.60;;
1715;SDS011;855;48.824;9.220;2023-11-21T06:05:26;2.77;;;0.83;;
1715;SDS011;855;48.824;9.220;2023-11-21T06:07:54;4.50;;;0.70;;
1715;SDS011;855;48.824;9.220;2023-11-21T06:10:23;2.10;;;0.87;;
1715;SDS011;855;48.824;9.220;2023-11-21T06:12:51;0.83;;;0.67;;
1715;SDS011;855;48.824;9.220;2023-11-21T06:15:18;8.90;;;1.00;;
1715;SDS011;855;48.824;9.220;2023-11-21T06:17:46;0.80;;;0.70;;
1715;SDS011;855;48.824;9.220;2023-11-21T06:20:17;1.90;;;1.13;;
1715;SDS011;855;48.824;9.220;2023-11-21T06:22:44;3.60;;;0.97;;
1715;SDS011;855;48.824;9.220;2023-11-21T06:25:13;1.00;;;0.73;;
1715;SDS011;855;48.824;9.220;2023-11-21T06:27:41;1.27;;;0.90;;
1715;SDS011;855;48.824;9.220;2023-11-21T06:30:10;0.63;;;0.53;;
1715;SDS011;855;48.824;9.220;2023-11-21T06:32:38;2.00;;;1.10;;
1715;SDS011;855;48.824;9.220;2023-11-21T06:35:06;1.53;;;1.13;;
1715;SDS011;855;48.824;9.220;2023-11-21T06:37:35;3.33;;;1.10;;
1715;SDS011;855;48.824;9.220;2023-11-21T06:40:02;2.03;;;1.10;;
1715;SDS011;855;48.824;9.220;2023-11-21T06:42:31;4.20;;;1.13;;
1715;SDS011;855;48.824;9.220;2023-11-21T06:44:58;3.50;;;0.90;;
1715;SDS011;855;48.824;9.220;2023-11-21T06:47:28;1.50;;;1.10;;
1715;SDS011;855;48.824;9.220;2023-11-21T06:49:55;1.60;;;0.90;;
